sensor_id;sensor_type;location;lat;lon;timestamp;P1;durP1;ratioP1;P2;durP2;ratioP2
26080;SDS011;13991;51.174;4.438;2023-11-21T00:01:17;42.07;;;18.03;;
26080;SDS011;13991;51.174;4.438;2023-11-21T00:03:43;41.63;;;17.17;;
26080;SDS011;13991;51.174;4.438;2023-11-21T00:06:09;41.00;;;17.67;;
26080;SDS011;13991;51.174;4.438;2023-11-21T00:08:35;37.30;;;16.87;;
26080;SDS011;13991;51.174;4.438;2023-11-21T00:11:01;40.93;;;18.50;;
26080;SDS011;13991;51.174;4.438;2023-11-21T00:13:30;39.37;;;19.13;;
26080;SDS011;13991;51.174;4.438;2023-11-21T00:15:59;44.63;;;18.70;;
26080;SDS011;13991;51.174;4.438;2023-11-21T00:18:25;44.73;;;19.20;;
26080;SDS011;13991;51.174;4.438;2023-11-21T00:20:51;49.23;;;19.73;;
26080;SDS011;13991;51.174;4.438;2023-11-21T00:23:17;53.67;;;20.37;;
26080;SDS011;13991;51.174;4.438;2023-11-21T00:25:43;52.07;;;18.73;;
26080;SDS011;13991;51.174;4.438;2023-11-21T00:28:09;46.40;;;20.10;;
26080;SDS011;13991;51.174;4.438;2023-11-21T00:30:34;45.30;;;19.63;;
26080;SDS011;13991;51.174;4.438;2023-11-21T00:33:00;47.60;;;19.80;;
26080;SDS011;13991;51.174;4.438;2023-11-21T00:35:26;49.93;;;20.03;;
26080;SDS011;13991;51.174;4.438;2023-11-21T00:37:51;43.97;;;19.03;;
26080;SDS011;13991;51.174;4.438;2023-11-21T00:40:17;46.20;;;20.33;;
26080;SDS011;13991;51.174;4.438;2023-11-21T00:42:46;45.23;;;20.23;;
26080;SDS011;13991;51.174;4.438;2023-11-21T00:45:12;44.57;;;20.60;;
26080;SDS011;13991;51.174;4.438;2023-11-21T00:47:37;50.77;;;21.30;;
26080;SDS011;13991;51.174;4.438;2023-11-21T00:50:04;65.13;;;21.27;;
26080;SDS011;13991;51.174;4.438;2023-11-21T00:52:31;62.57;;;20.80;;
26080;SDS011;13991;51.174;4.438;2023-11-21T00:54:57;49.27;;;22.23;;
26080;SDS011;13991;51.174;4.438;2023-11-21T00:57:25;49.97;;;20.67;;
26080;SDS011;13991;51.174;4.438;2023-11-21T00:59:51;49.83;;;20.87;;
26080;SDS011;13991;51.174;4.438;2023-11-21T01:02:16;45.20;;;21.23;;
26080;SDS011;13991;51.174;4.438;2023-11-21T01:04:42;61.10;;;22.53;;
26080;SDS011;13991;51.174;4.438;2023-11-21T01:07:08;50.50;;;21.27;;
26080;SDS011;13991;51.174;4.438;2023-11-21T01:09:34;48.23;;;20.30;;
26080;SDS011;13991;51.174;4.438;2023-11-21T01:12:00;52.27;;;21.47;;
26080;SDS011;13991;51.174;4.438;2023-11-21T01:14:26;48.80;;;21.30;;
26080;SDS011;13991;51.174;4.438;2023-11-21T01:16:52;47.87;;;20.17;;
26080;SDS011;13991;51.174;4.438;2023-11-21T01:19:18;51.83;;;19.40;;
26080;SDS011;13991;51.174;4.438;2023-11-21T01:21:43;49.10;;;20.47;;
26080;SDS011;13991;51.174;4.438;2023-11-21T01:24:09;46.73;;;21.57;;
26080;SDS011;13991;51.174;4.438;2023-11-21T01:26:35;60.73;;;22.17;;
26080;SDS011;13991;51.174;4.438;2023-11-21T01:29:00;52.13;;;21.53;;
26080;SDS011;13991;51.174;4.438;2023-11-21T01:31:26;44.13;;;19.40;;
26080;SDS011;13991;51.174;4.438;2023-11-21T01:33:54;55.23;;;22.03;;
26080;SDS011;13991;51.174;4.438;2023-11-21T01:36:29;47.43;;;20.43;;
26080;SDS011;13991;51.174;4.438;2023-11-21T01:38:57;48.97;;;20.93;;
26080;SDS011;13991;51.174;4.438;2023-11-21T01:41:24;49.60;;;20.63;;
26080;SDS011;13991;51.174;4.438;2023-11-21T01:43:53;47.50;;;19.83;;
26080;SDS011;13991;51.174;4.438;2023-11-21T01:46:19;59.20;;;21.33;;
26080;SDS011;13991;51.174;4.438;2023-11-21T01:48:45;49.73;;;21.23;;
26080;SDS011;13991;51.174;4.438;2023-11-21T01:51:12;69.60;;;22.20;;
26080;SDS011;13991;51.174;4.438;2023-11-21T01:53:38;50.37;;;22.80;;
26080;SDS011;13991;51.174;4.438;2023-11-21T01:56:04;53.80;;;22.93;;
26080;SDS011;13991;51.174;4.438;2023-11-21T01:58:33;52.00;;;20.87;;
26080;SDS011;13991;51.174;4.438;2023-11-21T02:00:58;59.87;;;23.13;;
26080;SDS011;13991;51.174;4.438;2023-11-21T02:03:24;50.07;;;22.07;;
26080;SDS011;13991;51.174;4.438;2023-11-21T02:05:51;55.23;;;21.83;;
26080;SDS011;13991;51.174;4.438;2023-11-21T02:08:18;51.80;;;21.23;;
26080;SDS011;13991;51.174;4.438;2023-11-21T02:10:44;54.90;;;22.40;;
26080;SDS011;13991;51.174;4.438;2023-11-21T02:13:10;55.03;;;22.23;;
26080;SDS011;13991;51.174;4.438;2023-11-21T02:15:36;56.20;;;21.90;;
26080;SDS011;13991;51.174;4.438;2023-11-21T02:18:03;53.57;;;23.90;;
26080;SDS011;13991;51.174;4.438;2023-11-21T02:20:31;50.10;;;22.13;;
26080;SDS011;13991;51.174;4.438;2023-11-21T02:23:00;50.07;;;21.37;;
26080;SDS011;13991;51.174;4.438;2023-11-21T02:25:30;51.37;;;20.33;;
26080;SDS011;13991;51.174;4.438;2023-11-21T02:27:57;51.93;;;21.33;;
26080;SDS011;13991;51.174;4.438;2023-11-21T02:30:25;50.57;;;21.00;;
26080;SDS011;13991;51.174;4.438;2023-11-21T02:32:51;47.67;;;20.50;;
26080;SDS011;13991;51.174;4.438;2023-11-21T02:35:23;48.27;;;20.80;;
26080;SDS011;13991;51.174;4.438;2023-11-21T02:37:50;49.70;;;21.60;;
26080;SDS011;13991;51.174;4.438;2023-11-21T02:40:17;56.27;;;21.87;;
26080;SDS011;13991;51.174;4.438;2023-11-21T02:42:52;51.03;;;20.73;;
26080;SDS011;13991;51.174;4.438;2023-11-21T02:45:18;48.73;;;22.10;;
26080;SDS011;13991;51.174;4.438;2023-11-21T02:47:46;50.13;;;20.27;;
26080;SDS011;13991;51.174;4.438;2023-11-21T02:50:13;45.77;;;19.73;;
26080;SDS011;13991;51.174;4.438;2023-11-21T02:52:39;41.17;;;19.73;;
26080;SDS011;13991;51.174;4.438;2023-11-21T02:55:05;45.47;;;19.67;;
26080;SDS011;13991;51.174;4.438;2023-11-21T02:57:32;56.67;;;21.87;;
26080;SDS011;13991;51.174;4.438;2023-11-21T02:59:58;53.60;;;20.77;;
26080;SDS011;13991;51.174;4.438;2023-11-21T03:02:24;48.70;;;20.07;;
26080;SDS011;13991;51.174;4.438;2023-11-21T03:04:50;49.67;;;19.93;;
26080;SDS011;13991;51.174;4.438;2023-11-21T03:07:16;43.50;;;20.43;;
26080;SDS011;13991;51.174;4.438;2023-11-21T03:09:44;50.00;;;20.93;;
26080;SDS011;13991;51.174;4.438;2023-11-21T03:12:10;54.43;;;22.03;;
26080;SDS011;13991;51.174;4.438;2023-11-21T03:14:37;47.40;;;19.97;;
26080;SDS011;13991;51.174;4.438;2023-11-21T03:17:04;49.30;;;20.03;;
26080;SDS011;13991;51.174;4.438;2023-11-21T03:19:30;49.87;;;20.00;;
26080;SDS011;13991;51.174;4.438;2023-11-21T03:21:56;54.87;;;20.80;;
26080;SDS011;13991;51.174;4.438;2023-11-21T03:24:21;51.10;;;20.67;;
26080;SDS011;13991;51.174;4.438;2023-11-21T03:26:48;51.80;;;21.23;;
26080;SDS011;13991;51.174;4.438;2023-11-21T03:29:13;57.17;;;22.03;;
26080;SDS011;13991;51.174;4.438;2023-11-21T03:31:40;49.93;;;20.50;;
26080;SDS011;13991;51.174;4.438;2023-11-21T03:34:06;40.67;;;19.33;;
26080;SDS011;13991;51.174;4.438;2023-11-21T03:36:31;53.13;;;20.83;;
26080;SDS011;13991;51.174;4.438;2023-11-21T03:38:57;51.67;;;21.27;;
26080;SDS011;13991;51.174;4.438;2023-11-21T03:41:23;44.63;;;19.17;;
26080;SDS011;13991;51.174;4.438;2023-11-21T03:43:48;43.40;;;19.57;;
26080;SDS011;13991;51.174;4.438;2023-11-21T03:46:14;49.63;;;19.90;;
26080;SDS011;13991;51.174;4.438;2023-11-21T03:48:40;53.87;;;21.27;;
26080;SDS011;13991;51.174;4.438;2023-11-21T03:51:07;56.03;;;19.97;;
26080;SDS011;13991;51.174;4.438;2023-11-21T03:53:32;48.40;;;21.33;;
26080;SDS011;13991;51.174;4.438;2023-11-21T03:55:58;49.17;;;20.37;;
26080;SDS011;13991;51.174;4.438;2023-11-21T03:58:23;50.93;;;20.30;;
26080;SDS011;13991;51.174;4.438;2023-11-21T04:00:49;51.17;;;19.43;;
26080;SDS011;13991;51.174;4.438;2023-11-21T04:03:15;49.10;;;20.23;;
26080;SDS011;13991;51.174;4.438;2023-11-21T04:05:40;51.23;;;19.53;;
26080;SDS011;13991;51.174;4.438;2023-11-21T04:08:06;47.47;;;19.73;;
26080;SDS011;13991;51.174;4.438;2023-11-21T04:10:32;51.17;;;19.23;;
26080;SDS011;13991;51.174;4.438;2023-11-21T04:12:58;45.87;;;18.20;;
26080;SDS011;13991;51.174;4.438;2023-11-21T04:15:24;52.87;;;20.77;;
26080;SDS011;13991;51.174;4.438;2023-11-21T04:17:49;45.53;;;19.57;;
26080;SDS011;13991;51.174;4.438;2023-11-21T04:20:15;44.67;;;19.23;;
26080;SDS011;13991;51.174;4.438;2023-11-21T04:22:41;43.20;;;18.67;;
26080;SDS011;13991;51.174;4.438;2023-11-21T04:25:11;50.40;;;19.37;;
26080;SDS011;13991;51.174;4.438;2023-11-21T04:27:39;56.00;;;20.47;;
26080;SDS011;13991;51.174;4.438;2023-11-21T04:30:05;51.90;;;19.73;;
26080;SDS011;13991;51.174;4.438;2023-11-21T04:32:31;44.83;;;17.93;;
26080;SDS011;13991;51.174;4.438;2023-11-21T04:34:57;51.73;;;19.17;;
26080;SDS011;13991;51.174;4.438;2023-11-21T04:37:23;50.07;;;18.30;;
26080;SDS011;13991;51.174;4.438;2023-11-21T04:39:49;52.67;;;18.60;;
26080;SDS011;13991;51.174;4.438;2023-11-21T04:42:15;43.47;;;18.77;;
26080;SDS011;13991;51.174;4.438;2023-11-21T04:44:40;40.97;;;18.17;;
26080;SDS011;13991;51.174;4.438;2023-11-21T04:47:06;46.40;;;18.73;;
26080;SDS011;13991;51.174;4.438;2023-11-21T04:49:32;49.20;;;17.50;;
26080;SDS011;13991;51.174;4.438;2023-11-21T04:51:58;44.53;;;18.50;;
26080;SDS011;13991;51.174;4.438;2023-11-21T04:54:24;46.23;;;19.80;;
26080;SDS011;13991;51.174;4.438;2023-11-21T04:56:50;50.00;;;18.43;;
26080;SDS011;13991;51.174;4.438;2023-11-21T04:59:16;50.50;;;19.27;;
26080;SDS011;13991;51.174;4.438;2023-11-21T05:01:41;35.23;;;16.67;;
26080;SDS011;13991;51.174;4.438;2023-11-21T05:04:07;46.70;;;18.27;;
26080;SDS011;13991;51.174;4.438;2023-11-21T05:06:33;43.40;;;17.47;;
26080;SDS011;13991;51.174;4.438;2023-11-21T05:08:59;42.87;;;18.10;;
26080;SDS011;13991;51.174;4.438;2023-11-21T05:11:25;41.83;;;18.83;;
26080;SDS011;13991;51.174;4.438;2023-11-21T05:13:52;47.33;;;17.70;;
26080;SDS011;13991;51.174;4.438;2023-11-21T05:16:19;39.23;;;17.73;;
26080;SDS011;13991;51.174;4.438;2023-11-21T05:18:45;47.77;;;19.00;;
26080;SDS011;13991;51.174;4.438;2023-11-21T05:21:11;49.67;;;19.20;;
26080;SDS011;13991;51.174;4.438;2023-11-21T05:23:36;46.57;;;17.70;;
26080;SDS011;13991;51.174;4.438;2023-11-21T05:26:02;47.47;;;17.60;;
26080;SDS011;13991;51.174;4.438;2023-11-21T05:28:28;37.83;;;16.33;;
26080;SDS011;13991;51.174;4.438;2023-11-21T05:30:54;49.83;;;17.83;;
26080;SDS011;13991;51.174;4.438;2023-11-21T05:33:20;35.10;;;17.40;;
26080;SDS011;13991;51.174;4.438;2023-11-21T05:35:45;39.13;;;16.73;;
26080;SDS011;13991;51.174;4.438;2023-11-21T05:38:13;46.53;;;17.83;;
26080;SDS011;13991;51.174;4.438;2023-11-21T05:40:39;47.20;;;18.03;;
26080;SDS011;13991;51.174;4.438;2023-11-21T05:43:05;38.37;;;17.27;;
26080;SDS011;13991;51.174;4.438;2023-11-21T05:45:31;46.30;;;18.17;;
26080;SDS011;13991;51.174;4.438;2023-11-21T05:47:58;41.20;;;17.47;;
26080;SDS011;13991;51.174;4.438;2023-11-21T05:50:23;39.90;;;17.53;;
26080;SDS011;13991;51.174;4.438;2023-11-21T05:52:49;44.03;;;16.67;;
26080;SDS011;13991;51.174;4.438;2023-11-21T05:55:15;38.63;;;16.87;;
26080;SDS011;13991;51.174;4.438;2023-11-21T05:57:41;34.00;;;15.70;;
26080;SDS011;13991;51.174;4.438;2023-11-21T06:00:09;43.87;;;17.37;;
26080;SDS011;13991;51.174;4.438;2023-11-21T06:02:40;44.70;;;16.50;;
26080;SDS011;13991;51.174;4.438;2023-11-21T06:05:06;41.17;;;17.43;;
26080;SDS011;13991;51.174;4.438;2023-11-21T06:07:33;47.70;;;17.40;;
26080;SDS011;13991;51.174;4.438;2023-11-21T06:10:00;49.50;;;17.37;;
26080;SDS011;13991;51.174;4.438;2023-11-21T06:12:33;44.53;;;16.80;;
26080;SDS011;13991;51.174;4.438;2023-11-21T06:15:01;45.67;;;17.13;;
26080;SDS011;13991;51.174;4.438;2023-11-21T06:17:30;41.57;;;18.00;;
26080;SDS011;13991;51.174;4.438;2023-11-21T06:19:56;51.67;;;18.63;;
26080;SDS011;13991;51.174;4.438;2023-11-21T06:22:22;43.17;;;18.30;;
26080;SDS011;13991;51.174;4.438;2023-11-21T06:24:47;46.00;;;17.90;;
26080;SDS011;13991;51.174;4.438;2023-11-21T06:27:13;40.67;;;17.90;;
26080;SDS011;13991;51.174;4.438;2023-11-21T06:29:39;35.73;;;16.67;;
26080;SDS011;13991;51.174;4.438;2023-11-21T06:32:04;42.87;;;17.17;;
26080;SDS011;13991;51.174;4.438;2023-11-21T06:34:30;36.17;;;15.97;;
26080;SDS011;13991;51.174;4.438;2023-11-21T06:36:56;38.20;;;17.37;;
26080;SDS011;13991;51.174;4.438;2023-11-21T06:39:22;38.60;;;18.13;;
26080;SDS011;13991;51.174;4.438;2023-11-21T06:41:51;49.53;;;18.13;;
26080;SDS011;13991;51.174;4.438;2023-11-21T06:44:16;40.33;;;17.27;;
26080;SDS011;13991;51.174;4.438;2023-11-21T06:46:42;42.20;;;18.13;;
26080;SDS011;13991;51.174;4.438;2023-11-21T06:49:08;52.33;;;18.57;;
26080;SDS011;13991;51.174;4.438;2023-11-21T06:51:33;46.13;;;19.63;;
26080;SDS011;13991;51.174;4.438;2023-11-21T06:53:59;50.80;;;19.93;;
26080;SDS011;13991;51.174;4.438;2023-11-21T06:56:25;50.73;;;19.67;;
26080;SDS011;13991;51.174;4.438;2023-11-21T06:58:50;54.90;;;19.77;;
26080;SDS011;13991;51.174;4.438;2023-11-21T07:01:19;48.00;;;19.67;;
26080;SDS011;13991;51.174;4.438;2023-11-21T07:03:44;49.07;;;18.80;;
26080;SDS011;13991;51.174;4.438;2023-11-21T07:06:10;54.77;;;20.33;;
26080;SDS011;13991;51.174;4.438;2023-11-21T07:08:36;62.63;;;21.63;;
26080;SDS011;13991;51.174;4.438;2023-11-21T07:11:03;54.87;;;20.37;;
26080;SDS011;13991;51.174;4.438;2023-11-21T07:13:29;62.40;;;22.13;;
26080;SDS011;13991;51.174;4.438;2023-11-21T07:15:55;58.77;;;22.30;;
26080;SDS011;13991;51.174;4.438;2023-11-21T07:18:21;67.27;;;22.67;;
26080;SDS011;13991;51.174;4.438;2023-11-21T07:20:48;64.60;;;21.10;;
26080;SDS011;13991;51.174;4.438;2023-11-21T07:23:13;63.87;;;22.67;;
26080;SDS011;13991;51.174;4.438;2023-11-21T07:25:40;65.43;;;22.37;;
26080;SDS011;13991;51.174;4.438;2023-11-21T07:28:08;73.80;;;23.83;;
26080;SDS011;13991;51.174;4.438;2023-11-21T07:30:33;67.77;;;22.93;;
26080;SDS011;13991;51.174;4.438;2023-11-21T07:32:59;71.93;;;24.00;;
26080;SDS011;13991;51.174;4.438;2023-11-21T07:35:25;86.33;;;24.87;;
26080;SDS011;13991;51.174;4.438;2023-11-21T07:37:51;75.17;;;23.17;;
26080;SDS011;13991;51.174;4.438;2023-11-21T07:40:17;87.67;;;25.03;;
26080;SDS011;13991;51.174;4.438;2023-11-21T07:42:42;74.80;;;24.17;;
26080;SDS011;13991;51.174;4.438;2023-11-21T07:45:08;74.63;;;25.10;;
26080;SDS011;13991;51.174;4.438;2023-11-21T07:47:34;72.77;;;25.47;;
26080;SDS011;13991;51.174;4.438;2023-11-21T07:50:00;77.63;;;25.23;;
26080;SDS011;13991;51.174;4.438;2023-11-21T07:52:28;71.07;;;25.90;;
26080;SDS011;13991;51.174;4.438;2023-11-21T07:54:53;75.07;;;25.57;;
26080;SDS011;13991;51.174;4.438;2023-11-21T07:57:19;75.30;;;25.23;;
26080;SDS011;13991;51.174;4.438;2023-11-21T07:59:45;71.40;;;24.97;;
26080;SDS011;13991;51.174;4.438;2023-11-21T08:02:10;64.83;;;22.77;;
26080;SDS011;13991;51.174;4.438;2023-11-21T08:04:36;82.67;;;23.70;;
26080;SDS011;13991;51.174;4.438;2023-11-21T08:07:02;79.93;;;23.30;;
26080;SDS011;13991;51.174;4.438;2023-11-21T08:09:28;70.63;;;23.57;;
26080;SDS011;13991;51.174;4.438;2023-11-21T08:11:54;80.00;;;29.85;;
26080;SDS011;13991;51.174;4.438;2023-11-21T08:14:21;68.00;;;23.57;;
26080;SDS011;13991;51.174;4.438;2023-11-21T08:16:47;66.20;;;21.17;;
26080;SDS011;13991;51.174;4.438;2023-11-21T08:19:13;59.17;;;20.53;;
26080;SDS011;13991;51.174;4.438;2023-11-21T08:21:38;58.40;;;18.73;;
26080;SDS011;13991;51.174;4.438;2023-11-21T08:24:06;51.93;;;19.40;;
26080;SDS011;13991;51.174;4.438;2023-11-21T08:26:35;52.17;;;18.87;;
26080;SDS011;13991;51.174;4.438;2023-11-21T08:29:01;49.13;;;17.47;;
26080;SDS011;13991;51.174;4.438;2023-11-21T08:31:27;64.43;;;18.77;;
26080;SDS011;13991;51.174;4.438;2023-11-21T08:33:53;53.83;;;18.77;;
26080;SDS011;13991;51.174;4.438;2023-11-21T08:36:20;55.10;;;19.23;;
26080;SDS011;13991;51.174;4.438;2023-11-21T08:38:48;43.43;;;17.43;;
26080;SDS011;13991;51.174;4.438;2023-11-21T08:41:14;51.77;;;19.20;;
26080;SDS011;13991;51.174;4.438;2023-11-21T08:43:41;52.00;;;19.07;;
26080;SDS011;13991;51.174;4.438;2023-11-21T08:46:07;49.40;;;19.53;;
26080;SDS011;13991;51.174;4.438;2023-11-21T08:48:36;45.70;;;18.27;;
26080;SDS011;13991;51.174;4.438;2023-11-21T08:51:02;55.07;;;19.37;;
26080;SDS011;13991;51.174;4.438;2023-11-21T08:53:29;54.20;;;20.77;;
26080;SDS011;13991;51.174;4.438;2023-11-21T08:55:56;55.20;;;19.67;;
26080;SDS011;13991;51.174;4.438;2023-11-21T08:58:22;49.27;;;19.73;;
26080;SDS011;13991;51.174;4.438;2023-11-21T09:00:47;56.07;;;19.27;;
26080;SDS011;13991;51.174;4.438;2023-11-21T09:03:13;51.20;;;18.83;;
26080;SDS011;13991;51.174;4.438;2023-11-21T09:05:39;55.53;;;19.80;;
26080;SDS011;13991;51.174;4.438;2023-11-21T09:08:05;63.87;;;20.97;;
26080;SDS011;13991;51.174;4.438;2023-11-21T09:10:30;52.20;;;20.83;;
26080;SDS011;13991;51.174;4.438;2023-11-21T09:12:57;52.13;;;21.40;;
26080;SDS011;13991;51.174;4.438;2023-11-21T09:15:24;57.10;;;20.37;;
26080;SDS011;13991;51.174;4.438;2023-11-21T09:17:50;44.60;;;18.60;;
26080;SDS011;13991;51.174;4.438;2023-11-21T09:20:15;60.07;;;20.80;;
26080;SDS011;13991;51.174;4.438;2023-11-21T09:22:42;53.63;;;19.23;;
26080;SDS011;13991;51.174;4.438;2023-11-21T09:25:09;48.23;;;18.93;;
26080;SDS011;13991;51.174;4.438;2023-11-21T09:27:36;42.97;;;18.47;;
26080;SDS011;13991;51.174;4.438;2023-11-21T09:30:01;42.70;;;18.17;;
26080;SDS011;13991;51.174;4.438;2023-11-21T09:32:30;46.63;;;17.03;;
26080;SDS011;13991;51.174;4.438;2023-11-21T09:34:56;41.17;;;18.03;;
26080;SDS011;13991;51.174;4.438;2023-11-21T09:37:23;39.33;;;15.80;;
26080;SDS011;13991;51.174;4.438;2023-11-21T09:39:49;32.53;;;13.17;;
26080;SDS011;13991;51.174;4.438;2023-11-21T09:42:21;38.17;;;12.70;;
26080;SDS011;13991;51.174;4.438;2023-11-21T09:44:52;39.67;;;12.40;;
26080;SDS011;13991;51.174;4.438;2023-11-21T09:47:28;31.33;;;12.00;;
26080;SDS011;13991;51.174;4.438;2023-11-21T09:49:54;27.50;;;10.77;;
26080;SDS011;13991;51.174;4.438;2023-11-21T09:52:25;26.10;;;10.83;;
26080;SDS011;13991;51.174;4.438;2023-11-21T09:54:52;34.43;;;11.93;;
26080;SDS011;13991;51.174;4.438;2023-11-21T09:57:19;27.87;;;11.37;;
26080;SDS011;13991;51.174;4.438;2023-11-21T09:59:50;25.20;;;10.07;;
26080;SDS011;13991;51.174;4.438;2023-11-21T10:02:20;29.67;;;11.27;;
26080;SDS011;13991;51.174;4.438;2023-11-21T10:04:55;32.40;;;11.33;;
26080;SDS011;13991;51.174;4.438;2023-11-21T10:07:21;22.90;;;9.57;;
26080;SDS011;13991;51.174;4.438;2023-11-21T10:09:48;31.77;;;11.23;;
26080;SDS011;13991;51.174;4.438;2023-11-21T10:12:16;30.53;;;11.17;;
26080;SDS011;13991;51.174;4.438;2023-11-21T10:14:42;31.67;;;11.03;;
26080;SDS011;13991;51.174;4.438;2023-11-21T10:17:10;32.83;;;9.80;;
26080;SDS011;13991;51.174;4.438;2023-11-21T10:19:38;27.23;;;11.82;;
26080;SDS011;13991;51.174;4.438;2023-11-21T10:22:04;26.17;;;10.03;;
26080;SDS011;13991;51.174;4.438;2023-11-21T10:24:33;21.93;;;8.47;;
26080;SDS011;13991;51.174;4.438;2023-11-21T10:27:04;21.50;;;8.73;;
26080;SDS011;13991;51.174;4.438;2023-11-21T10:29:30;28.60;;;8.63;;
26080;SDS011;13991;51.174;4.438;2023-11-21T10:31:55;20.47;;;8.17;;
26080;SDS011;13991;51.174;4.438;2023-11-21T10:34:23;20.93;;;7.17;;
26080;SDS011;13991;51.174;4.438;2023-11-21T10:36:49;18.87;;;6.63;;
26080;SDS011;13991;51.174;4.438;2023-11-21T10:39:21;21.17;;;7.50;;
26080;SDS011;13991;51.174;4.438;2023-11-21T10:41:49;21.03;;;7.13;;
26080;SDS011;13991;51.174;4.438;2023-11-21T10:44:19;12.90;;;5.77;;
26080;SDS011;13991;51.174;4.438;2023-11-21T10:46:52;13.70;;;5.47;;
26080;SDS011;13991;51.174;4.438;2023-11-21T10:49:25;14.27;;;5.63;;
26080;SDS011;13991;51.174;4.438;2023-11-21T10:51:52;19.00;;;6.50;;
26080;SDS011;13991;51.174;4.438;2023-11-21T10:54:19;11.93;;;5.13;;
26080;SDS011;13991;51.174;4.438;2023-11-21T10:56:45;14.67;;;5.20;;
26080;SDS011;13991;51.174;4.438;2023-11-21T10:59:16;14.00;;;5.87;;
26080;SDS011;13991;51.174;4.438;2023-11-21T11:01:42;17.37;;;6.70;;
26080;SDS011;13991;51.174;4.438;2023-11-21T11:04:11;12.63;;;6.07;;
26080;SDS011;13991;51.174;4.438;2023-11-21T11:06:51;25.97;;;7.03;;
26080;SDS011;13991;51.174;4.438;2023-11-21T11:09:22;14.03;;;4.93;;
26080;SDS011;13991;51.174;4.438;2023-11-21T11:11:48;13.03;;;4.43;;
26080;SDS011;13991;51.174;4.438;2023-11-21T11:14:14;11.77;;;4.13;;
26080;SDS011;13991;51.174;4.438;2023-11-21T11:16:40;12.50;;;4.03;;
26080;SDS011;13991;51.174;4.438;2023-11-21T11:19:08;16.27;;;4.53;;
26080;SDS011;13991;51.174;4.438;2023-11-21T11:21:46;10.90;;;3.80;;
26080;SDS011;13991;51.174;4.438;2023-11-21T11:24:51;8.70;;;3.30;;
26080;SDS011;13991;51.174;4.438;2023-11-21T11:30:16;9.97;;;3.50;;
26080;SDS011;13991;51.174;4.438;2023-11-21T11:36:10;10.83;;;3.53;;
26080;SDS011;13991;51.174;4.438;2023-11-21T11:38:32;12.47;;;3.20;;
26080;SDS011;13991;51.174;4.438;2023-11-21T11:41:01;12.33;;;3.37;;
26080;SDS011;13991;51.174;4.438;2023-11-21T11:43:29;9.80;;;3.50;;
26080;SDS011;13991;51.174;4.438;2023-11-21T11:45:58;11.77;;;3.60;;
26080;SDS011;13991;51.174;4.438;2023-11-21T11:48:24;11.37;;;4.10;;
26080;SDS011;13991;51.174;4.438;2023-11-21T11:53:49;11.07;;;4.60;;
26080;SDS011;13991;51.174;4.438;2023-11-21T11:58:57;14.23;;;4.87;;
26080;SDS011;13991;51.174;4.438;2023-11-21T12:01:27;12.47;;;5.33;;
26080;SDS011;13991;51.174;4.438;2023-11-21T12:06:45;7.77;;;4.00;;
26080;SDS011;13991;51.174;4.438;2023-11-21T12:09:32;16.23;;;4.57;;
26080;SDS011;13991;51.174;4.438;2023-11-21T12:11:57;16.53;;;4.93;;
26080;SDS011;13991;51.174;4.438;2023-11-21T12:14:23;21.43;;;4.20;;
26080;SDS011;13991;51.174;4.438;2023-11-21T12:16:49;12.37;;;4.80;;
26080;SDS011;13991;51.174;4.438;2023-11-21T12:19:20;10.63;;;4.83;;
26080;SDS011;13991;51.174;4.438;2023-11-21T12:21:46;7.47;;;4.13;;
26080;SDS011;13991;51.174;4.438;2023-11-21T12:24:13;8.97;;;3.60;;
26080;SDS011;13991;51.174;4.438;2023-11-21T12:26:41;7.10;;;3.47;;
26080;SDS011;13991;51.174;4.438;2023-11-21T12:29:07;11.23;;;4.47;;
26080;SDS011;13991;51.174;4.438;2023-11-21T12:31:33;12.67;;;4.07;;
26080;SDS011;13991;51.174;4.438;2023-11-21T12:34:02;11.83;;;4.10;;
26080;SDS011;13991;51.174;4.438;2023-11-21T12:36:29;10.30;;;3.83;;
26080;SDS011;13991;51.174;4.438;2023-11-21T12:38:55;11.13;;;4.50;;
26080;SDS011;13991;51.174;4.438;2023-11-21T12:41:21;9.53;;;4.03;;
26080;SDS011;13991;51.174;4.438;2023-11-21T12:43:47;10.77;;;4.13;;
26080;SDS011;13991;51.174;4.438;2023-11-21T12:46:13;7.07;;;2.67;;
26080;SDS011;13991;51.174;4.438;2023-11-21T12:48:43;16.03;;;3.40;;
26080;SDS011;13991;51.174;4.438;2023-11-21T12:51:11;6.40;;;2.97;;
26080;SDS011;13991;51.174;4.438;2023-11-21T12:53:39;56.77;;;9.13;;
26080;SDS011;13991;51.174;4.438;2023-11-21T12:56:11;6.85;;;2.83;;
26080;SDS011;13991;51.174;4.438;2023-11-21T12:58:38;5.87;;;2.20;;
26080;SDS011;13991;51.174;4.438;2023-11-21T13:01:05;7.83;;;2.97;;
26080;SDS011;13991;51.174;4.438;2023-11-21T13:03:36;22.83;;;3.40;;
26080;SDS011;13991;51.174;4.438;2023-11-21T13:06:03;9.47;;;2.87;;
26080;SDS011;13991;51.174;4.438;2023-11-21T13:08:30;6.80;;;2.40;;
26080;SDS011;13991;51.174;4.438;2023-11-21T13:10:57;8.97;;;2.57;;
26080;SDS011;13991;51.174;4.438;2023-11-21T13:13:24;3.53;;;2.10;;
26080;SDS011;13991;51.174;4.438;2023-11-21T13:15:56;13.17;;;2.73;;
26080;SDS011;13991;51.174;4.438;2023-11-21T13:18:30;7.00;;;2.30;;
26080;SDS011;13991;51.174;4.438;2023-11-21T13:20:56;5.73;;;2.37;;
26080;SDS011;13991;51.174;4.438;2023-11-21T13:23:28;17.40;;;3.37;;
26080;SDS011;13991;51.174;4.438;2023-11-21T13:25:56;7.27;;;2.57;;
26080;SDS011;13991;51.174;4.438;2023-11-21T13:28:23;6.97;;;3.13;;
26080;SDS011;13991;51.174;4.438;2023-11-21T13:30:51;5.53;;;2.97;;
26080;SDS011;13991;51.174;4.438;2023-11-21T13:33:18;7.07;;;3.20;;
26080;SDS011;13991;51.174;4.438;2023-11-21T13:35:52;12.43;;;3.13;;
26080;SDS011;13991;51.174;4.438;2023-11-21T13:38:18;3.50;;;2.17;;
26080;SDS011;13991;51.174;4.438;2023-11-21T13:40:51;17.03;;;2.97;;
26080;SDS011;13991;51.174;4.438;2023-11-21T13:43:20;7.93;;;2.53;;
26080;SDS011;13991;51.174;4.438;2023-11-21T13:45:49;7.90;;;2.87;;
26080;SDS011;13991;51.174;4.438;2023-11-21T13:48:23;8.00;;;2.90;;
26080;SDS011;13991;51.174;4.438;2023-11-21T13:51:10;6.37;;;3.17;;
26080;SDS011;13991;51.174;4.438;2023-11-21T13:53:42;6.20;;;3.38;;
26080;SDS011;13991;51.174;4.438;2023-11-21T13:56:10;5.23;;;2.87;;
26080;SDS011;13991;51.174;4.438;2023-11-21T13:58:37;9.77;;;3.27;;
26080;SDS011;13991;51.174;4.438;2023-11-21T14:01:19;11.17;;;3.53;;
26080;SDS011;13991;51.174;4.438;2023-11-21T14:04:17;7.27;;;3.67;;
26080;SDS011;13991;51.174;4.438;2023-11-21T14:06:43;8.93;;;3.77;;
26080;SDS011;13991;51.174;4.438;2023-11-21T14:09:23;13.03;;;3.97;;
26080;SDS011;13991;51.174;4.438;2023-11-21T14:11:51;6.43;;;3.70;;
26080;SDS011;13991;51.174;4.438;2023-11-21T14:14:18;15.70;;;4.50;;
26080;SDS011;13991;51.174;4.438;2023-11-21T14:16:47;10.03;;;4.23;;
26080;SDS011;13991;51.174;4.438;2023-11-21T14:19:12;12.47;;;4.13;;
26080;SDS011;13991;51.174;4.438;2023-11-21T14:21:42;8.43;;;3.73;;
26080;SDS011;13991;51.174;4.438;2023-11-21T14:24:11;15.27;;;4.50;;
26080;SDS011;13991;51.174;4.438;2023-11-21T14:26:41;10.10;;;4.40;;
26080;SDS011;13991;51.174;4.438;2023-11-21T14:29:08;8.27;;;3.97;;
26080;SDS011;13991;51.174;4.438;2023-11-21T14:31:37;6.87;;;4.00;;
26080;SDS011;13991;51.174;4.438;2023-11-21T14:34:03;12.23;;;4.27;;
26080;SDS011;13991;51.174;4.438;2023-11-21T14:36:31;9.67;;;4.17;;
26080;SDS011;13991;51.174;4.438;2023-11-21T14:38:57;10.90;;;5.17;;
26080;SDS011;13991;51.174;4.438;2023-11-21T14:41:22;15.97;;;4.73;;